sensor_id;sensor_type;location;lat;lon;timestamp;pressure;altitude;pressure_sealevel;temperature;humidity
27020;BME280;76819;49.098;11.826;2024-02-23T05:05:09;94396.25;;;5.73;76.67
27020;BME280;76819;49.098;11.826;2024-02-23T05:10:11;94396.44;;;6.54;74.13
27020;BME280;76819;49.098;11.826;2024-02-23T05:15:14;94399.94;;;7.06;71.90
27020;BME280;76819;49.098;11.826;2024-02-23T05:20:18;94394.41;;;7.42;70.53
27020;BME280;76819;49.098;11.826;2024-02-23T05:25:21;94399.66;;;7.71;69.51
27020;BME280;76819;49.098;11.826;2024-02-23T05:30:24;94389.50;;;7.74;68.78
27020;BME280;76819;49.098;11.826;2024-02-23T05:35:29;94383.91;;;7.71;68.71
27020;BME280;76819;49.098;11.826;2024-02-23T05:40:32;94377.34;;;7.57;68.98
27020;BME280;76819;49.098;11.826;2024-02-23T05:45:35;94376.13;;;7.76;68.85
27020;BME280;76819;49.098;11.826;2024-02-23T05:50:39;94399.47;;;7.61;68.90
27020;BME280;76819;49.098;11.826;2024-02-23T05:55:41;94395.72;;;7.57;69.51
27020;BME280;76819;49.098;11.826;2024-02-23T06:00:44;94412.25;;;7.17;71.06
27020;BME280;76819;49.098;11.826;2024-02-23T06:05:48;94440.91;;;7.47;69.67
27020;BME280;76819;49.098;11.826;2024-02-23T06:10:51;94439.09;;;7.47;69.80
27020;BME280;76819;49.098;11.826;2024-02-23T06:15:53;94451.41;;;7.47;69.89
27020;BME280;76819;49.098;11.826;2024-02-23T06:20:57;94457.00;;;7.62;69.64
27020;BME280;76819;49.098;11.826;2024-02-23T06:26:00;94458.44;;;7.70;69.25
27020;BME280;76819;49.098;11.826;2024-02-23T06:31:03;94468.47;;;7.73;68.64
27020;BME280;76819;49.098;11.826;2024-02-23T06:36:08;94464.81;;;7.74;68.40
27020;BME280;76819;49.098;11.826;2024-02-23T06:41:11;94466.69;;;7.62;68.67
27020;BME280;76819;49.098;11.826;2024-02-23T06:46:14;94497.97;;;7.52;68.38
27020;BME280;76819;49.098;11.826;2024-02-23T06:51:18;94502.50;;;7.68;68.01
27020;BME280;76819;49.098;11.826;2024-02-23T06:56:21;94495.72;;;7.32;69.16
27020;BME280;76819;49.098;11.826;2024-02-23T07:01:24;94483.63;;;7.42;68.40
27020;BME280;76819;49.098;11.826;2024-02-23T07:06:28;94477.06;;;7.68;67.64
27020;BME280;76819;49.098;11.826;2024-02-23T07:11:32;94505.53;;;7.36;68.58
27020;BME280;76819;49.098;11.826;2024-02-23T07:16:37;94496.72;;;7.54;68.37
27020;BME280;76819;49.098;11.826;2024-02-23T07:21:41;94496.81;;;7.47;68.62
27020;BME280;76819;49.098;11.826;2024-02-23T07:26:44;94491.28;;;7.32;68.95
27020;BME280;76819;49.098;11.826;2024-02-23T07:31:47;94505.88;;;7.28;69.37
27020;BME280;76819;49.098;11.826;2024-02-23T07:36:52;94514.31;;;7.19;70.26
27020;BME280;76819;49.098;11.826;2024-02-23T07:41:55;94519.75;;;7.64;68.68
27020;BME280;76819;49.098;11.826;2024-02-23T07:46:58;94520.13;;;7.32;69.64
27020;BME280;76819;49.098;11.826;2024-02-23T07:52:02;94527.78;;;7.11;70.93
27020;BME280;76819;49.098;11.826;2024-02-23T07:57:05;94533.09;;;7.51;69.24
27020;BME280;76819;49.098;11.826;2024-02-23T12:18:16;94544.38;;;6.28;73.08
27020;BME280;76819;49.098;11.826;2024-02-23T12:23:19;94550.13;;;7.13;70.92
27020;BME280;76819;49.098;11.826;2024-02-23T12:28:22;94558.44;;;7.57;70.35
27020;BME280;76819;49.098;11.826;2024-02-23T12:33:28;94549.56;;;7.46;69.91
27020;BME280;76819;49.098;11.826;2024-02-23T12:38:32;94546.72;;;7.99;68.27
27020;BME280;76819;49.098;11.826;2024-02-23T12:43:35;94539.81;;;7.81;67.92
27020;BME280;76819;49.098;11.826;2024-02-23T12:48:43;94549.63;;;8.14;67.48
27020;BME280;76819;49.098;11.826;2024-02-23T12:53:46;94539.22;;;7.91;67.49
27020;BME280;76819;49.098;11.826;2024-02-23T12:58:49;94529.94;;;8.00;66.44
27020;BME280;76819;49.098;11.826;2024-02-23T13:03:53;94529.91;;;8.12;67.44
27020;BME280;76819;49.098;11.826;2024-02-23T13:08:56;94543.88;;;7.89;67.87
27020;BME280;76819;49.098;11.826;2024-02-23T13:13:59;94534.34;;;8.11;66.79
27020;BME280;76819;49.098;11.826;2024-02-23T13:19:03;94535.00;;;8.30;66.11
27020;BME280;76819;49.098;11.826;2024-02-23T13:24:05;94544.47;;;8.31;65.23
27020;BME280;76819;49.098;11.826;2024-02-23T13:29:08;94530.97;;;8.27;66.64
27020;BME280;76819;49.098;11.826;2024-02-23T13:34:12;94531.75;;;8.39;65.77
27020;BME280;76819;49.098;11.826;2024-02-23T13:39:17;94531.97;;;8.66;64.85
27020;BME280;76819;49.098;11.826;2024-02-23T13:44:19;94511.75;;;8.67;64.34
27020;BME280;76819;49.098;11.826;2024-02-23T13:49:23;94497.47;;;8.79;62.88
27020;BME280;76819;49.098;11.826;2024-02-23T13:54:27;94495.13;;;8.49;63.17
27020;BME280;76819;49.098;11.826;2024-02-23T13:59:29;94523.22;;;8.21;64.56
27020;BME280;76819;49.098;11.826;2024-02-23T14:04:33;94535.78;;;7.90;64.12
27020;BME280;76819;49.098;11.826;2024-02-23T14:09:37;94521.31;;;8.16;64.78
27020;BME280;76819;49.098;11.826;2024-02-23T14:14:39;94527.44;;;8.33;64.22
27020;BME280;76819;49.098;11.826;2024-02-23T14:19:44;94508.66;;;8.13;64.92
27020;BME280;76819;49.098;11.826;2024-02-23T14:24:46;94489.84;;;8.33;64.17
27020;BME280;76819;49.098;11.826;2024-02-23T14:29:49;94490.34;;;8.18;64.60
27020;BME280;76819;49.098;11.826;2024-02-23T14:34:53;94492.44;;;8.05;64.40
27020;BME280;76819;49.098;11.826;2024-02-23T14:39:56;94498.84;;;8.09;64.93
27020;BME280;76819;49.098;11.826;2024-02-23T14:44:59;94486.22;;;8.50;64.55
27020;BME280;76819;49.098;11.826;2024-02-23T14:50:04;94504.84;;;8.32;63.98
27020;BME280;76819;49.098;11.826;2024-02-23T14:55:07;94508.50;;;8.31;63.70
27020;BME280;76819;49.098;11.826;2024-02-23T15:00:13;94518.38;;;8.41;63.73
27020;BME280;76819;49.098;11.826;2024-02-23T15:05:17;94516.75;;;8.52;63.69
27020;BME280;76819;49.098;11.826;2024-02-23T15:10:20;94553.06;;;8.55;63.45
27020;BME280;76819;49.098;11.826;2024-02-23T15:15:23;94552.22;;;8.37;63.41
27020;BME280;76819;49.098;11.826;2024-02-23T15:20:27;94567.56;;;7.77;64.39
27020;BME280;76819;49.098;11.826;2024-02-23T15:25:30;94554.06;;;7.97;63.61
27020;BME280;76819;49.098;11.826;2024-02-23T15:30:34;94533.53;;;8.11;63.92
27020;BME280;76819;49.098;11.826;2024-02-23T15:35:38;94497.56;;;8.11;62.94
27020;BME280;76819;49.098;11.826;2024-02-23T15:40:41;94489.69;;;8.39;62.48
27020;BME280;76819;49.098;11.826;2024-02-23T15:45:43;94482.16;;;8.60;62.13
27020;BME280;76819;49.098;11.826;2024-02-23T15:50:47;94487.66;;;8.75;61.91
27020;BME280;76819;49.098;11.826;2024-02-23T15:56:10;94499.72;;;8.71;62.29
27020;BME280;76819;49.098;11.826;2024-02-23T16:01:13;94520.94;;;8.52;61.62
27020;BME280;76819;49.098;11.826;2024-02-23T16:06:17;94499.19;;;8.40;62.65
27020;BME280;76819;49.098;11.826;2024-02-23T16:11:19;94483.78;;;8.61;62.83
27020;BME280;76819;49.098;11.826;2024-02-23T16:16:22;94509.41;;;8.25;62.72
27020;BME280;76819;49.098;11.826;2024-02-23T16:21:27;94504.22;;;8.59;61.66
27020;BME280;76819;49.098;11.826;2024-02-23T16:26:30;94521.09;;;8.46;62.56
27020;BME280;76819;49.098;11.826;2024-02-23T16:31:36;94529.34;;;8.10;63.20
27020;BME280;76819;49.098;11.826;2024-02-23T16:36:40;94513.38;;;7.99;62.59
27020;BME280;76819;49.098;11.826;2024-02-23T16:41:45;94501.84;;;8.01;62.54
27020;BME280;76819;49.098;11.826;2024-02-23T16:46:48;94505.56;;;8.16;61.97
27020;BME280;76819;49.098;11.826;2024-02-23T16:51:52;94497.56;;;8.11;61.48
27020;BME280;76819;49.098;11.826;2024-02-23T16:56:55;94515.59;;;8.19;60.97
27020;BME280;76819;49.098;11.826;2024-02-23T17:01:59;94508.38;;;8.26;60.81
27020;BME280;76819;49.098;11.826;2024-02-23T17:07:03;94525.06;;;8.32;60.47
27020;BME280;76819;49.098;11.826;2024-02-23T17:12:07;94524.81;;;8.33;60.39
27020;BME280;76819;49.098;11.826;2024-02-23T17:17:09;94526.63;;;8.33;59.73
27020;BME280;76819;49.098;11.826;2024-02-23T17:22:13;94528.28;;;8.22;59.60
27020;BME280;76819;49.098;11.826;2024-02-23T17:27:16;94515.22;;;7.99;59.08
27020;BME280;76819;49.098;11.826;2024-02-23T17:32:19;94506.38;;;8.05;59.12
27020;BME280;76819;49.098;11.826;2024-02-23T17:37:24;94507.50;;;7.81;59.27
27020;BME280;76819;49.098;11.826;2024-02-23T17:42:26;94532.34;;;7.27;60.89
27020;BME280;76819;49.098;11.826;2024-02-23T17:47:29;94534.16;;;7.38;61.03
27020;BME280;76819;49.098;11.826;2024-02-23T17:52:33;94552.84;;;7.53;60.59
27020;BME280;76819;49.098;11.826;2024-02-23T17:57:36;94548.84;;;7.51;60.37
27020;BME280;76819;49.098;11.826;2024-02-23T18:02:38;94532.44;;;7.20;60.49
27020;BME280;76819;49.098;11.826;2024-02-23T18:07:43;94506.16;;;6.51;62.63
27020;BME280;76819;49.098;11.826;2024-02-23T18:12:45;94482.59;;;6.62;61.92
27020;BME280;76819;49.098;11.826;2024-02-23T18:17:48;94500.28;;;6.67;62.46
27020;BME280;76819;49.098;11.826;2024-02-23T18:22:53;94533.19;;;6.33;63.06
27020;BME280;76819;49.098;11.826;2024-02-23T18:27:57;94547.06;;;6.22;63.42
27020;BME280;76819;49.098;11.826;2024-02-23T18:32:59;94553.78;;;6.48;63.31
27020;BME280;76819;49.098;11.826;2024-02-23T18:38:04;94556.13;;;6.37;63.54
27020;BME280;76819;49.098;11.826;2024-02-23T18:43:06;94558.34;;;6.04;64.31
27020;BME280;76819;49.098;11.826;2024-02-23T18:48:09;94546.47;;;6.50;63.46
27020;BME280;76819;49.098;11.826;2024-02-23T18:53:13;94541.69;;;6.47;63.17
27020;BME280;76819;49.098;11.826;2024-02-23T18:58:16;94543.28;;;6.48;62.91
27020;BME280;76819;49.098;11.826;2024-02-23T19:03:19;94527.22;;;6.56;62.98
27020;BME280;76819;49.098;11.826;2024-02-23T19:08:23;94536.97;;;6.67;62.89
27020;BME280;76819;49.098;11.826;2024-02-23T19:13:26;94502.53;;;6.86;62.11
27020;BME280;76819;49.098;11.826;2024-02-23T19:18:28;94484.22;;;7.10;61.38
27020;BME280;76819;49.098;11.826;2024-02-23T19:23:32;94525.06;;;6.64;62.41
27020;BME280;76819;49.098;11.826;2024-02-23T19:28:35;94534.56;;;6.35;62.67
27020;BME280;76819;49.098;11.826;2024-02-23T19:33:38;94536.88;;;6.44;63.13
27020;BME280;76819;49.098;11.826;2024-02-23T19:38:42;94531.47;;;6.57;62.40
27020;BME280;76819;49.098;11.826;2024-02-23T19:43:45;94526.44;;;6.55;62.31
27020;BME280;76819;49.098;11.826;2024-02-23T19:48:49;94530.31;;;6.53;62.20
27020;BME280;76819;49.098;11.826;2024-02-23T19:53:53;94530.56;;;6.63;62.18
27020;BME280;76819;49.098;11.826;2024-02-23T19:58:56;94535.50;;;6.82;61.58
27020;BME280;76819;49.098;11.826;2024-02-23T20:03:59;94529.91;;;6.79;61.47
27020;BME280;76819;49.098;11.826;2024-02-23T20:09:04;94541.28;;;6.73;61.54
27020;BME280;76819;49.098;11.826;2024-02-23T20:14:07;94533.19;;;6.74;61.85
27020;BME280;76819;49.098;11.826;2024-02-23T20:19:10;94521.25;;;6.90;60.98
27020;BME280;76819;49.098;11.826;2024-02-23T20:24:14;94527.09;;;6.92;61.12
27020;BME280;76819;49.098;11.826;2024-02-23T20:29:17;94518.88;;;6.88;60.67
27020;BME280;76819;49.098;11.826;2024-02-23T20:34:19;94525.13;;;6.76;61.37
27020;BME280;76819;49.098;11.826;2024-02-23T20:39:24;94530.22;;;6.71;61.36
27020;BME280;76819;49.098;11.826;2024-02-23T20:44:26;94520.78;;;6.81;61.06
27020;BME280;76819;49.098;11.826;2024-02-23T20:49:29;94528.41;;;6.83;60.93
27020;BME280;76819;49.098;11.826;2024-02-23T20:54:34;94512.25;;;6.86;61.35
27020;BME280;76819;49.098;11.826;2024-02-23T21:15:21;94528.47;;;5.21;65.14
27020;BME280;76819;49.098;11.826;2024-02-23T21:20:23;94513.44;;;5.71;64.52
27020;BME280;76819;49.098;11.826;2024-02-23T21:25:26;94507.97;;;6.09;63.25
27020;BME280;76819;49.098;11.826;2024-02-23T21:30:30;94499.38;;;6.31;62.77
27020;BME280;76819;49.098;11.826;2024-02-23T21:35:33;94507.38;;;6.48;62.69
27020;BME280;76819;49.098;11.826;2024-02-23T21:40:37;94512.66;;;6.60;62.32
27020;BME280;76819;49.098;11.826;2024-02-23T21:45:41;94510.59;;;6.62;61.75
27020;BME280;76819;49.098;11.826;2024-02-23T21:50:43;94515.41;;;6.65;61.86
27020;BME280;76819;49.098;11.826;2024-02-23T21:55:46;94497.84;;;6.65;61.97
27020;BME280;76819;49.098;11.826;2024-02-23T22:00:50;94531.00;;;6.60;62.17
27020;BME280;76819;49.098;11.826;2024-02-23T22:05:54;94532.47;;;6.56;62.19
27020;BME280;76819;49.098;11.826;2024-02-23T22:10:57;94532.59;;;6.61;61.63
27020;BME280;76819;49.098;11.826;2024-02-23T22:16:01;94535.81;;;6.63;62.10
27020;BME280;76819;49.098;11.826;2024-02-23T22:21:04;94522.00;;;6.56;61.94
27020;BME280;76819;49.098;11.826;2024-02-23T22:26:07;94513.69;;;6.59;61.82
27020;BME280;76819;49.098;11.826;2024-02-23T22:31:11;94524.63;;;6.56;61.38
27020;BME280;76819;49.098;11.826;2024-02-23T22:36:14;94512.53;;;6.55;61.53
27020;BME280;76819;49.098;11.826;2024-02-23T22:41:16;94500.31;;;6.49;61.68
27020;BME280;76819;49.098;11.826;2024-02-23T22:46:20;94519.25;;;6.51;61.78
27020;BME280;76819;49.098;11.826;2024-02-23T22:51:23;94518.22;;;6.52;61.88
27020;BME280;76819;49.098;11.826;2024-02-23T22:56:26;94532.09;;;6.41;62.15
27020;BME280;76819;49.098;11.826;2024-02-23T23:01:30;94525.78;;;6.30;62.06
27020;BME280;76819;49.098;11.826;2024-02-23T23:06:33;94520.19;;;6.26;62.55
27020;BME280;76819;49.098;11.826;2024-02-23T23:11:37;94525.88;;;6.23;62.21
27020;BME280;76819;49.098;11.826;2024-02-23T23:16:41;94527.34;;;6.19;62.94
27020;BME280;76819;49.098;11.826;2024-02-23T23:21:44;94516.88;;;6.19;62.68
27020;BME280;76819;49.098;11.826;2024-02-23T23:26:49;94519.94;;;6.16;62.22
27020;BME280;76819;49.098;11.826;2024-02-23T23:31:53;94510.50;;;6.15;62.73
27020;BME280;76819;49.098;11.826;2024-02-23T23:36:55;94509.53;;;6.10;63.17
27020;BME280;76819;49.098;11.826;2024-02-23T23:41:58;94517.03;;;6.06;62.60
27020;BME280;76819;49.098;11.826;2024-02-23T23:47:03;94516.47;;;6.04;62.54
27020;BME280;76819;49.098;11.826;2024-02-23T23:52:05;94516.09;;;6.01;62.48
27020;BME280;76819;49.098;11.826;2024-02-23T23:57:08;94516.56;;;5.98;62.97
